sensor_id;sensor_type;location;lat;lon;timestamp;temperature;humidity
5786;DHT22;2919;48.630;9.000;2024-02-28T00:01:23;6.40;99.90
5786;DHT22;2919;48.630;9.000;2024-02-28T00:03:48;6.40;99.90
5786;DHT22;2919;48.630;9.000;2024-02-28T00:06:16;6.50;99.90
5786;DHT22;2919;48.630;9.000;2024-02-28T00:08:42;6.50;99.90
5786;DHT22;2919;48.630;9.000;2024-02-28T00:11:07;6.60;99.90
5786;DHT22;2919;48.630;9.000;2024-02-28T00:13:33;6.50;99.90
5786;DHT22;2919;48.630;9.000;2024-02-28T00:15:58;6.50;99.90
5786;DHT22;2919;48.630;9.000;2024-02-28T00:18:24;6.50;99.90
5786;DHT22;2919;48.630;9.000;2024-02-28T00:20:49;6.50;99.90
5786;DHT22;2919;48.630;9.000;2024-02-28T00:23:15;6.50;99.90
5786;DHT22;2919;48.630;9.000;2024-02-28T00:25:41;6.50;99.90
5786;DHT22;2919;48.630;9.000;2024-02-28T00:28:06;6.50;99.90
5786;DHT22;2919;48.630;9.000;2024-02-28T00:30:32;6.50;99.90
5786;DHT22;2919;48.630;9.000;2024-02-28T00:32:58;6.40;99.90
5786;DHT22;2919;48.630;9.000;2024-02-28T00:35:23;6.40;99.90
5786;DHT22;2919;48.630;9.000;2024-02-28T00:37:49;6.40;99.90
5786;DHT22;2919;48.630;9.000;2024-02-28T00:40:14;6.40;99.90
5786;DHT22;2919;48.630;9.000;2024-02-28T00:42:40;6.40;99.90
5786;DHT22;2919;48.630;9.000;2024-02-28T00:45:08;6.30;99.90
5786;DHT22;2919;48.630;9.000;2024-02-28T00:47:34;6.30;99.90
5786;DHT22;2919;48.630;9.000;2024-02-28T00:49:59;6.30;99.90
5786;DHT22;2919;48.630;9.000;2024-02-28T00:52:25;6.20;99.90
5786;DHT22;2919;48.630;9.000;2024-02-28T00:54:51;6.20;99.90
5786;DHT22;2919;48.630;9.000;2024-02-28T00:57:16;6.20;99.90
5786;DHT22;2919;48.630;9.000;2024-02-28T00:59:42;6.20;99.90
5786;DHT22;2919;48.630;9.000;2024-02-28T01:02:08;6.00;99.90
5786;DHT22;2919;48.630;9.000;2024-02-28T01:04:33;6.10;99.90
5786;DHT22;2919;48.630;9.000;2024-02-28T01:06:59;6.10;99.90
5786;DHT22;2919;48.630;9.000;2024-02-28T01:09:25;6.10;99.90
5786;DHT22;2919;48.630;9.000;2024-02-28T01:11:50;6.10;99.90
5786;DHT22;2919;48.630;9.000;2024-02-28T01:14:16;6.10;99.90
5786;DHT22;2919;48.630;9.000;2024-02-28T01:16:41;6.10;99.90
5786;DHT22;2919;48.630;9.000;2024-02-28T01:19:07;6.10;99.90
5786;DHT22;2919;48.630;9.000;2024-02-28T01:21:32;6.10;99.90
5786;DHT22;2919;48.630;9.000;2024-02-28T01:23:58;6.20;99.90
5786;DHT22;2919;48.630;9.000;2024-02-28T01:26:24;6.20;99.90
5786;DHT22;2919;48.630;9.000;2024-02-28T01:28:50;6.10;99.90
5786;DHT22;2919;48.630;9.000;2024-02-28T01:31:15;6.30;99.90
5786;DHT22;2919;48.630;9.000;2024-02-28T01:33:41;6.10;99.90
5786;DHT22;2919;48.630;9.000;2024-02-28T01:36:07;6.20;99.90
5786;DHT22;2919;48.630;9.000;2024-02-28T01:38:32;6.00;99.90
5786;DHT22;2919;48.630;9.000;2024-02-28T01:40:58;6.10;99.90
5786;DHT22;2919;48.630;9.000;2024-02-28T01:43:23;6.20;99.90
5786;DHT22;2919;48.630;9.000;2024-02-28T01:45:50;6.00;99.90
5786;DHT22;2919;48.630;9.000;2024-02-28T01:48:16;6.00;99.90
5786;DHT22;2919;48.630;9.000;2024-02-28T01:50:41;6.00;99.90
5786;DHT22;2919;48.630;9.000;2024-02-28T01:53:08;6.10;99.90
5786;DHT22;2919;48.630;9.000;2024-02-28T01:55:35;6.00;99.90
5786;DHT22;2919;48.630;9.000;2024-02-28T01:58:01;6.10;99.90
5786;DHT22;2919;48.630;9.000;2024-02-28T02:00:28;6.10;99.90
5786;DHT22;2919;48.630;9.000;2024-02-28T02:02:53;6.10;99.90
5786;DHT22;2919;48.630;9.000;2024-02-28T02:05:19;6.10;99.90
5786;DHT22;2919;48.630;9.000;2024-02-28T02:07:48;6.30;99.90
5786;DHT22;2919;48.630;9.000;2024-02-28T02:10:13;6.10;99.90
5786;DHT22;2919;48.630;9.000;2024-02-28T02:12:39;6.20;99.90
5786;DHT22;2919;48.630;9.000;2024-02-28T02:15:05;6.10;99.90
5786;DHT22;2919;48.630;9.000;2024-02-28T02:17:30;6.10;99.90
5786;DHT22;2919;48.630;9.000;2024-02-28T02:19:56;6.00;99.90
5786;DHT22;2919;48.630;9.000;2024-02-28T02:22:23;6.00;99.90
5786;DHT22;2919;48.630;9.000;2024-02-28T02:24:52;6.00;99.90
5786;DHT22;2919;48.630;9.000;2024-02-28T02:27:17;5.90;99.90
5786;DHT22;2919;48.630;9.000;2024-02-28T02:29:43;5.90;99.90
5786;DHT22;2919;48.630;9.000;2024-02-28T02:32:08;5.90;99.90
5786;DHT22;2919;48.630;9.000;2024-02-28T02:34:34;5.90;99.90
5786;DHT22;2919;48.630;9.000;2024-02-28T02:36:59;5.90;99.90
5786;DHT22;2919;48.630;9.000;2024-02-28T02:39:25;5.90;99.90
5786;DHT22;2919;48.630;9.000;2024-02-28T02:41:50;5.90;99.90
5786;DHT22;2919;48.630;9.000;2024-02-28T02:44:17;5.80;99.90
5786;DHT22;2919;48.630;9.000;2024-02-28T02:46:42;6.00;99.90
5786;DHT22;2919;48.630;9.000;2024-02-28T02:49:08;6.00;99.90
5786;DHT22;2919;48.630;9.000;2024-02-28T02:51:33;5.80;99.90
5786;DHT22;2919;48.630;9.000;2024-02-28T02:53:59;5.90;99.90
5786;DHT22;2919;48.630;9.000;2024-02-28T02:56:24;5.90;99.90
5786;DHT22;2919;48.630;9.000;2024-02-28T02:58:49;6.00;99.90
5786;DHT22;2919;48.630;9.000;2024-02-28T03:01:15;6.00;99.90
5786;DHT22;2919;48.630;9.000;2024-02-28T03:03:41;5.90;99.90
5786;DHT22;2919;48.630;9.000;2024-02-28T03:06:06;5.90;99.90
5786;DHT22;2919;48.630;9.000;2024-02-28T03:08:32;5.90;99.90
5786;DHT22;2919;48.630;9.000;2024-02-28T03:10:58;5.90;99.90
5786;DHT22;2919;48.630;9.000;2024-02-28T03:13:23;5.80;99.90
5786;DHT22;2919;48.630;9.000;2024-02-28T03:15:49;5.90;99.90
5786;DHT22;2919;48.630;9.000;2024-02-28T03:18:14;5.90;99.90
5786;DHT22;2919;48.630;9.000;2024-02-28T03:20:40;5.90;99.90
5786;DHT22;2919;48.630;9.000;2024-02-28T03:23:06;5.90;99.90
5786;DHT22;2919;48.630;9.000;2024-02-28T03:25:32;5.90;99.90
5786;DHT22;2919;48.630;9.000;2024-02-28T03:27:58;5.90;99.90
5786;DHT22;2919;48.630;9.000;2024-02-28T03:30:25;5.90;99.90
5786;DHT22;2919;48.630;9.000;2024-02-28T03:32:50;5.90;99.90
5786;DHT22;2919;48.630;9.000;2024-02-28T03:35:16;5.80;99.90
5786;DHT22;2919;48.630;9.000;2024-02-28T03:37:41;5.90;99.90
5786;DHT22;2919;48.630;9.000;2024-02-28T03:40:07;5.90;99.90
5786;DHT22;2919;48.630;9.000;2024-02-28T03:42:33;5.80;99.90
5786;DHT22;2919;48.630;9.000;2024-02-28T03:44:58;5.80;99.90
5786;DHT22;2919;48.630;9.000;2024-02-28T03:47:24;5.70;99.90
5786;DHT22;2919;48.630;9.000;2024-02-28T03:49:50;5.70;99.90
5786;DHT22;2919;48.630;9.000;2024-02-28T03:52:15;5.70;99.90
5786;DHT22;2919;48.630;9.000;2024-02-28T03:54:44;5.80;99.90
5786;DHT22;2919;48.630;9.000;2024-02-28T03:57:10;5.90;99.90
5786;DHT22;2919;48.630;9.000;2024-02-28T03:59:35;5.80;99.90
5786;DHT22;2919;48.630;9.000;2024-02-28T04:02:01;5.80;99.90
5786;DHT22;2919;48.630;9.000;2024-02-28T04:04:27;5.80;99.90
5786;DHT22;2919;48.630;9.000;2024-02-28T04:06:52;5.80;99.90
5786;DHT22;2919;48.630;9.000;2024-02-28T04:09:18;5.80;99.90
5786;DHT22;2919;48.630;9.000;2024-02-28T04:11:43;5.80;99.90
5786;DHT22;2919;48.630;9.000;2024-02-28T04:14:09;5.70;99.90
5786;DHT22;2919;48.630;9.000;2024-02-28T04:16:34;5.60;99.90
5786;DHT22;2919;48.630;9.000;2024-02-28T04:19:05;5.70;99.90
5786;DHT22;2919;48.630;9.000;2024-02-28T04:21:31;5.70;99.90
5786;DHT22;2919;48.630;9.000;2024-02-28T04:23:56;5.70;99.90
5786;DHT22;2919;48.630;9.000;2024-02-28T04:26:22;5.60;99.90
5786;DHT22;2919;48.630;9.000;2024-02-28T04:28:47;5.60;99.90
5786;DHT22;2919;48.630;9.000;2024-02-28T04:31:13;5.60;99.90
5786;DHT22;2919;48.630;9.000;2024-02-28T04:33:38;5.60;99.90
5786;DHT22;2919;48.630;9.000;2024-02-28T04:36:04;5.60;99.90
5786;DHT22;2919;48.630;9.000;2024-02-28T04:38:30;5.60;99.90
5786;DHT22;2919;48.630;9.000;2024-02-28T04:40:55;5.60;99.90
5786;DHT22;2919;48.630;9.000;2024-02-28T04:43:21;5.60;99.90
5786;DHT22;2919;48.630;9.000;2024-02-28T04:45:46;5.60;99.90
5786;DHT22;2919;48.630;9.000;2024-02-28T04:48:12;5.60;99.90
5786;DHT22;2919;48.630;9.000;2024-02-28T04:50:37;5.50;99.90
5786;DHT22;2919;48.630;9.000;2024-02-28T04:53:03;5.50;99.90
5786;DHT22;2919;48.630;9.000;2024-02-28T04:55:29;5.50;99.90
5786;DHT22;2919;48.630;9.000;2024-02-28T04:57:54;5.50;99.90
5786;DHT22;2919;48.630;9.000;2024-02-28T05:00:20;5.40;99.90
5786;DHT22;2919;48.630;9.000;2024-02-28T05:02:45;5.40;99.90
5786;DHT22;2919;48.630;9.000;2024-02-28T05:05:11;5.50;99.90
5786;DHT22;2919;48.630;9.000;2024-02-28T05:07:36;5.40;99.90
5786;DHT22;2919;48.630;9.000;2024-02-28T05:10:02;5.30;99.90
5786;DHT22;2919;48.630;9.000;2024-02-28T05:12:27;5.30;99.90
5786;DHT22;2919;48.630;9.000;2024-02-28T05:14:53;5.30;99.90
5786;DHT22;2919;48.630;9.000;2024-02-28T05:17:18;5.40;99.90
5786;DHT22;2919;48.630;9.000;2024-02-28T05:19:44;5.40;99.90
5786;DHT22;2919;48.630;9.000;2024-02-28T05:22:09;5.30;99.90
5786;DHT22;2919;48.630;9.000;2024-02-28T05:24:36;5.20;99.90
5786;DHT22;2919;48.630;9.000;2024-02-28T05:27:02;5.20;99.90
5786;DHT22;2919;48.630;9.000;2024-02-28T05:29:27;5.20;99.90
5786;DHT22;2919;48.630;9.000;2024-02-28T05:31:53;5.20;99.90
5786;DHT22;2919;48.630;9.000;2024-02-28T05:34:18;5.30;99.90
5786;DHT22;2919;48.630;9.000;2024-02-28T05:36:44;5.20;99.90
5786;DHT22;2919;48.630;9.000;2024-02-28T05:39:09;5.20;99.90
5786;DHT22;2919;48.630;9.000;2024-02-28T05:41:35;5.10;99.90
5786;DHT22;2919;48.630;9.000;2024-02-28T05:44:00;5.20;99.90
5786;DHT22;2919;48.630;9.000;2024-02-28T05:46:26;5.10;99.90
5786;DHT22;2919;48.630;9.000;2024-02-28T05:48:51;5.20;99.90
5786;DHT22;2919;48.630;9.000;2024-02-28T05:51:17;5.30;99.90
5786;DHT22;2919;48.630;9.000;2024-02-28T05:53:43;5.10;99.90
5786;DHT22;2919;48.630;9.000;2024-02-28T05:56:09;5.10;99.90
5786;DHT22;2919;48.630;9.000;2024-02-28T05:58:39;5.10;99.90
5786;DHT22;2919;48.630;9.000;2024-02-28T06:01:05;5.10;99.90
5786;DHT22;2919;48.630;9.000;2024-02-28T06:03:32;5.10;99.90
5786;DHT22;2919;48.630;9.000;2024-02-28T06:05:58;5.10;99.90
5786;DHT22;2919;48.630;9.000;2024-02-28T06:08:23;5.10;99.90
5786;DHT22;2919;48.630;9.000;2024-02-28T06:10:49;5.20;99.90
5786;DHT22;2919;48.630;9.000;2024-02-28T06:13:14;5.10;99.90
5786;DHT22;2919;48.630;9.000;2024-02-28T06:15:40;5.20;99.90
5786;DHT22;2919;48.630;9.000;2024-02-28T06:18:06;5.20;99.90
5786;DHT22;2919;48.630;9.000;2024-02-28T06:20:31;5.20;99.90
5786;DHT22;2919;48.630;9.000;2024-02-28T06:22:57;5.20;99.90
5786;DHT22;2919;48.630;9.000;2024-02-28T06:25:22;5.30;99.90
5786;DHT22;2919;48.630;9.000;2024-02-28T06:27:49;5.30;99.90
5786;DHT22;2919;48.630;9.000;2024-02-28T06:30:16;5.30;99.90
5786;DHT22;2919;48.630;9.000;2024-02-28T06:32:42;5.30;99.90
5786;DHT22;2919;48.630;9.000;2024-02-28T06:35:08;5.30;99.90
5786;DHT22;2919;48.630;9.000;2024-02-28T06:37:34;5.30;99.90
5786;DHT22;2919;48.630;9.000;2024-02-28T06:40:02;5.30;99.90
5786;DHT22;2919;48.630;9.000;2024-02-28T06:42:29;5.30;99.90
5786;DHT22;2919;48.630;9.000;2024-02-28T06:44:55;5.30;99.90
5786;DHT22;2919;48.630;9.000;2024-02-28T06:47:21;5.40;99.90
5786;DHT22;2919;48.630;9.000;2024-02-28T06:49:46;5.40;99.90
5786;DHT22;2919;48.630;9.000;2024-02-28T06:52:12;5.40;99.90
5786;DHT22;2919;48.630;9.000;2024-02-28T06:54:37;5.30;99.90
5786;DHT22;2919;48.630;9.000;2024-02-28T06:57:03;5.30;99.90
5786;DHT22;2919;48.630;9.000;2024-02-28T06:59:29;5.30;99.90
5786;DHT22;2919;48.630;9.000;2024-02-28T07:01:54;5.30;99.90
5786;DHT22;2919;48.630;9.000;2024-02-28T07:04:20;5.40;99.90
5786;DHT22;2919;48.630;9.000;2024-02-28T07:06:45;5.50;99.90
5786;DHT22;2919;48.630;9.000;2024-02-28T07:09:11;5.50;99.90
5786;DHT22;2919;48.630;9.000;2024-02-28T07:11:37;5.50;99.90
5786;DHT22;2919;48.630;9.000;2024-02-28T07:14:03;5.60;99.90
5786;DHT22;2919;48.630;9.000;2024-02-28T07:16:31;5.60;99.90
5786;DHT22;2919;48.630;9.000;2024-02-28T07:19:00;5.50;99.90
5786;DHT22;2919;48.630;9.000;2024-02-28T07:21:26;5.50;99.90
5786;DHT22;2919;48.630;9.000;2024-02-28T07:23:52;5.60;99.90
5786;DHT22;2919;48.630;9.000;2024-02-28T07:26:17;5.60;99.90
5786;DHT22;2919;48.630;9.000;2024-02-28T07:28:43;5.60;99.90
5786;DHT22;2919;48.630;9.000;2024-02-28T07:31:15;5.60;99.90
5786;DHT22;2919;48.630;9.000;2024-02-28T07:33:41;5.70;99.90
5786;DHT22;2919;48.630;9.000;2024-02-28T07:36:06;5.80;99.90
5786;DHT22;2919;48.630;9.000;2024-02-28T07:38:32;5.80;99.90
5786;DHT22;2919;48.630;9.000;2024-02-28T07:40:58;5.80;99.90
5786;DHT22;2919;48.630;9.000;2024-02-28T07:43:23;5.70;99.90
5786;DHT22;2919;48.630;9.000;2024-02-28T07:45:49;5.80;99.90
5786;DHT22;2919;48.630;9.000;2024-02-28T07:48:14;5.80;99.90
5786;DHT22;2919;48.630;9.000;2024-02-28T07:50:45;5.70;99.90
5786;DHT22;2919;48.630;9.000;2024-02-28T07:53:13;5.80;99.90
5786;DHT22;2919;48.630;9.000;2024-02-28T07:55:38;5.80;99.90
5786;DHT22;2919;48.630;9.000;2024-02-28T07:58:04;5.80;99.90
5786;DHT22;2919;48.630;9.000;2024-02-28T08:00:31;5.80;99.90
5786;DHT22;2919;48.630;9.000;2024-02-28T08:02:58;5.80;99.90
5786;DHT22;2919;48.630;9.000;2024-02-28T08:05:24;5.80;99.90
5786;DHT22;2919;48.630;9.000;2024-02-28T08:07:49;5.70;99.90
5786;DHT22;2919;48.630;9.000;2024-02-28T08:10:15;5.80;99.90
5786;DHT22;2919;48.630;9.000;2024-02-28T08:12:40;5.80;99.90
5786;DHT22;2919;48.630;9.000;2024-02-28T08:15:06;5.90;99.90
5786;DHT22;2919;48.630;9.000;2024-02-28T08:17:31;5.90;99.90
5786;DHT22;2919;48.630;9.000;2024-02-28T08:19:57;5.80;99.90
5786;DHT22;2919;48.630;9.000;2024-02-28T08:22:22;6.00;99.90
5786;DHT22;2919;48.630;9.000;2024-02-28T08:24:51;5.90;99.90
5786;DHT22;2919;48.630;9.000;2024-02-28T08:27:17;5.90;99.90
5786;DHT22;2919;48.630;9.000;2024-02-28T08:29:42;5.90;99.90
5786;DHT22;2919;48.630;9.000;2024-02-28T08:32:10;5.90;99.90
5786;DHT22;2919;48.630;9.000;2024-02-28T08:34:36;5.90;99.90
5786;DHT22;2919;48.630;9.000;2024-02-28T08:37:02;5.90;99.90
5786;DHT22;2919;48.630;9.000;2024-02-28T08:39:27;5.80;99.90
5786;DHT22;2919;48.630;9.000;2024-02-28T08:41:53;5.90;99.90
5786;DHT22;2919;48.630;9.000;2024-02-28T08:44:19;5.80;99.90
5786;DHT22;2919;48.630;9.000;2024-02-28T08:46:47;5.80;99.90
5786;DHT22;2919;48.630;9.000;2024-02-28T08:49:14;5.90;99.90
5786;DHT22;2919;48.630;9.000;2024-02-28T08:51:39;5.90;99.90
5786;DHT22;2919;48.630;9.000;2024-02-28T08:54:05;6.10;99.90
5786;DHT22;2919;48.630;9.000;2024-02-28T08:56:31;6.00;99.90
5786;DHT22;2919;48.630;9.000;2024-02-28T08:58:56;6.00;99.90
5786;DHT22;2919;48.630;9.000;2024-02-28T09:01:22;6.10;99.90
5786;DHT22;2919;48.630;9.000;2024-02-28T09:03:47;6.00;99.90
5786;DHT22;2919;48.630;9.000;2024-02-28T09:06:13;6.10;99.90
5786;DHT22;2919;48.630;9.000;2024-02-28T09:08:39;6.10;99.90
5786;DHT22;2919;48.630;9.000;2024-02-28T09:11:04;6.10;99.90
5786;DHT22;2919;48.630;9.000;2024-02-28T09:13:31;6.10;99.90
5786;DHT22;2919;48.630;9.000;2024-02-28T09:15:56;6.30;99.90
5786;DHT22;2919;48.630;9.000;2024-02-28T09:18:23;6.10;99.90
5786;DHT22;2919;48.630;9.000;2024-02-28T09:20:48;6.20;99.90
5786;DHT22;2919;48.630;9.000;2024-02-28T09:23:14;6.20;99.90
5786;DHT22;2919;48.630;9.000;2024-02-28T09:25:40;6.20;99.90
5786;DHT22;2919;48.630;9.000;2024-02-28T09:28:05;6.20;99.90
5786;DHT22;2919;48.630;9.000;2024-02-28T09:30:31;6.10;99.90
5786;DHT22;2919;48.630;9.000;2024-02-28T09:32:56;6.20;99.90
5786;DHT22;2919;48.630;9.000;2024-02-28T09:35:22;6.30;99.90
5786;DHT22;2919;48.630;9.000;2024-02-28T09:37:48;6.30;99.90
5786;DHT22;2919;48.630;9.000;2024-02-28T09:40:13;6.30;99.90
5786;DHT22;2919;48.630;9.000;2024-02-28T09:42:39;6.30;99.90
5786;DHT22;2919;48.630;9.000;2024-02-28T09:45:08;6.30;99.90
5786;DHT22;2919;48.630;9.000;2024-02-28T09:47:35;6.30;99.90
5786;DHT22;2919;48.630;9.000;2024-02-28T09:50:01;6.30;99.90
5786;DHT22;2919;48.630;9.000;2024-02-28T09:52:28;6.40;99.90
5786;DHT22;2919;48.630;9.000;2024-02-28T09:54:53;6.40;99.90
5786;DHT22;2919;48.630;9.000;2024-02-28T09:57:19;6.50;99.90
5786;DHT22;2919;48.630;9.000;2024-02-28T09:59:46;6.60;99.90
5786;DHT22;2919;48.630;9.000;2024-02-28T10:02:12;6.70;99.90
5786;DHT22;2919;48.630;9.000;2024-02-28T10:04:40;6.70;99.90
5786;DHT22;2919;48.630;9.000;2024-02-28T10:07:12;6.70;99.90
5786;DHT22;2919;48.630;9.000;2024-02-28T10:09:38;6.80;99.90
5786;DHT22;2919;48.630;9.000;2024-02-28T10:12:04;6.80;99.90
5786;DHT22;2919;48.630;9.000;2024-02-28T10:14:30;6.90;99.90
5786;DHT22;2919;48.630;9.000;2024-02-28T10:16:56;7.00;99.90
5786;DHT22;2919;48.630;9.000;2024-02-28T10:19:21;6.90;99.90
5786;DHT22;2919;48.630;9.000;2024-02-28T10:21:47;6.80;99.90
5786;DHT22;2919;48.630;9.000;2024-02-28T10:24:12;6.60;99.90
5786;DHT22;2919;48.630;9.000;2024-02-28T10:26:47;6.70;99.90
5786;DHT22;2919;48.630;9.000;2024-02-28T10:29:25;6.70;99.90
5786;DHT22;2919;48.630;9.000;2024-02-28T10:31:51;6.60;99.90
5786;DHT22;2919;48.630;9.000;2024-02-28T10:34:17;6.80;99.90
5786;DHT22;2919;48.630;9.000;2024-02-28T10:36:44;7.00;99.90
5786;DHT22;2919;48.630;9.000;2024-02-28T10:39:11;7.10;99.90
5786;DHT22;2919;48.630;9.000;2024-02-28T10:41:40;6.90;99.90
5786;DHT22;2919;48.630;9.000;2024-02-28T10:44:06;7.00;99.90
5786;DHT22;2919;48.630;9.000;2024-02-28T10:46:32;7.10;99.90
5786;DHT22;2919;48.630;9.000;2024-02-28T10:48:58;7.00;99.90
5786;DHT22;2919;48.630;9.000;2024-02-28T10:51:24;6.90;99.90
5786;DHT22;2919;48.630;9.000;2024-02-28T10:54:13;6.70;99.90
5786;DHT22;2919;48.630;9.000;2024-02-28T10:56:39;6.60;99.90
5786;DHT22;2919;48.630;9.000;2024-02-28T10:59:09;6.70;99.90
5786;DHT22;2919;48.630;9.000;2024-02-28T11:01:40;6.70;99.90
5786;DHT22;2919;48.630;9.000;2024-02-28T11:04:10;6.70;99.90
5786;DHT22;2919;48.630;9.000;2024-02-28T11:06:50;6.80;99.90
5786;DHT22;2919;48.630;9.000;2024-02-28T11:09:24;7.00;99.90
5786;DHT22;2919;48.630;9.000;2024-02-28T11:11:51;7.30;99.90
5786;DHT22;2919;48.630;9.000;2024-02-28T11:14:17;7.10;99.90
5786;DHT22;2919;48.630;9.000;2024-02-28T11:16:42;7.30;99.90
5786;DHT22;2919;48.630;9.000;2024-02-28T11:19:19;7.40;99.90
5786;DHT22;2919;48.630;9.000;2024-02-28T11:21:53;7.60;99.90
5786;DHT22;2919;48.630;9.000;2024-02-28T11:24:23;7.50;99.90
5786;DHT22;2919;48.630;9.000;2024-02-28T11:26:49;7.40;99.90
5786;DHT22;2919;48.630;9.000;2024-02-28T11:29:16;7.40;99.90
5786;DHT22;2919;48.630;9.000;2024-02-28T11:31:42;7.50;99.90
5786;DHT22;2919;48.630;9.000;2024-02-28T11:34:08;7.60;99.90
5786;DHT22;2919;48.630;9.000;2024-02-28T11:36:33;7.60;99.90
5786;DHT22;2919;48.630;9.000;2024-02-28T11:38:59;7.40;99.90
5786;DHT22;2919;48.630;9.000;2024-02-28T11:41:26;7.50;99.90
5786;DHT22;2919;48.630;9.000;2024-02-28T11:43:53;7.70;99.90
5786;DHT22;2919;48.630;9.000;2024-02-28T11:46:18;7.60;99.90
5786;DHT22;2919;48.630;9.000;2024-02-28T11:48:44;7.70;99.90
5786;DHT22;2919;48.630;9.000;2024-02-28T11:51:10;7.50;99.90
5786;DHT22;2919;48.630;9.000;2024-02-28T11:53:36;7.70;99.90
5786;DHT22;2919;48.630;9.000;2024-02-28T11:56:01;7.80;99.90
5786;DHT22;2919;48.630;9.000;2024-02-28T11:58:28;7.70;99.90
5786;DHT22;2919;48.630;9.000;2024-02-28T12:00:54;7.50;99.90
5786;DHT22;2919;48.630;9.000;2024-02-28T12:03:21;7.50;99.90
5786;DHT22;2919;48.630;9.000;2024-02-28T12:05:46;7.60;99.90
5786;DHT22;2919;48.630;9.000;2024-02-28T12:08:12;7.70;99.90
5786;DHT22;2919;48.630;9.000;2024-02-28T12:10:37;7.70;99.90
5786;DHT22;2919;48.630;9.000;2024-02-28T12:13:03;7.80;99.90
5786;DHT22;2919;48.630;9.000;2024-02-28T12:15:29;7.80;99.90
5786;DHT22;2919;48.630;9.000;2024-02-28T12:17:55;7.80;99.90
5786;DHT22;2919;48.630;9.000;2024-02-28T12:20:23;7.90;99.90
5786;DHT22;2919;48.630;9.000;2024-02-28T12:22:49;7.80;99.90
5786;DHT22;2919;48.630;9.000;2024-02-28T12:25:14;7.70;99.90
5786;DHT22;2919;48.630;9.000;2024-02-28T12:27:40;7.70;99.90
5786;DHT22;2919;48.630;9.000;2024-02-28T12:30:06;7.60;99.90
5786;DHT22;2919;48.630;9.000;2024-02-28T12:32:32;7.50;99.90
5786;DHT22;2919;48.630;9.000;2024-02-28T12:34:57;7.50;99.90
5786;DHT22;2919;48.630;9.000;2024-02-28T12:37:23;7.40;99.90
5786;DHT22;2919;48.630;9.000;2024-02-28T12:39:48;7.70;99.90
5786;DHT22;2919;48.630;9.000;2024-02-28T12:42:14;7.50;99.90
5786;DHT22;2919;48.630;9.000;2024-02-28T12:44:39;7.60;99.90
5786;DHT22;2919;48.630;9.000;2024-02-28T12:47:06;7.50;99.90
5786;DHT22;2919;48.630;9.000;2024-02-28T12:49:32;7.70;99.90
5786;DHT22;2919;48.630;9.000;2024-02-28T12:51:57;7.60;99.90
5786;DHT22;2919;48.630;9.000;2024-02-28T12:54:22;7.50;99.90
5786;DHT22;2919;48.630;9.000;2024-02-28T12:56:48;7.60;99.90
5786;DHT22;2919;48.630;9.000;2024-02-28T12:59:14;7.60;99.90
5786;DHT22;2919;48.630;9.000;2024-02-28T13:01:39;7.60;99.90
5786;DHT22;2919;48.630;9.000;2024-02-28T13:04:05;7.60;99.90
5786;DHT22;2919;48.630;9.000;2024-02-28T13:06:31;7.50;99.90
5786;DHT22;2919;48.630;9.000;2024-02-28T13:08:56;7.50;99.90
5786;DHT22;2919;48.630;9.000;2024-02-28T13:11:24;7.50;99.90
5786;DHT22;2919;48.630;9.000;2024-02-28T13:13:50;7.50;99.90
5786;DHT22;2919;48.630;9.000;2024-02-28T13:16:17;7.50;99.90
5786;DHT22;2919;48.630;9.000;2024-02-28T13:18:43;7.50;99.90
5786;DHT22;2919;48.630;9.000;2024-02-28T13:21:10;7.40;99.90
5786;DHT22;2919;48.630;9.000;2024-02-28T13:23:35;7.40;99.90
5786;DHT22;2919;48.630;9.000;2024-02-28T13:26:05;7.50;99.90
5786;DHT22;2919;48.630;9.000;2024-02-28T13:28:31;7.50;99.90
5786;DHT22;2919;48.630;9.000;2024-02-28T13:31:00;7.40;99.90
5786;DHT22;2919;48.630;9.000;2024-02-28T13:33:26;7.40;99.90
5786;DHT22;2919;48.630;9.000;2024-02-28T13:35:54;7.50;99.90
5786;DHT22;2919;48.630;9.000;2024-02-28T13:38:21;7.50;99.90
5786;DHT22;2919;48.630;9.000;2024-02-28T13:40:47;7.50;99.90
5786;DHT22;2919;48.630;9.000;2024-02-28T13:43:13;7.40;99.90
5786;DHT22;2919;48.630;9.000;2024-02-28T13:45:39;7.40;99.90
5786;DHT22;2919;48.630;9.000;2024-02-28T13:48:18;7.40;99.90
5786;DHT22;2919;48.630;9.000;2024-02-28T13:50:46;7.40;99.90
5786;DHT22;2919;48.630;9.000;2024-02-28T13:53:12;7.30;99.90
5786;DHT22;2919;48.630;9.000;2024-02-28T13:55:38;7.30;99.90
5786;DHT22;2919;48.630;9.000;2024-02-28T13:58:04;7.30;99.90
5786;DHT22;2919;48.630;9.000;2024-02-28T14:00:30;7.30;99.90
5786;DHT22;2919;48.630;9.000;2024-02-28T14:02:56;7.30;99.90
5786;DHT22;2919;48.630;9.000;2024-02-28T14:05:21;7.40;99.90
5786;DHT22;2919;48.630;9.000;2024-02-28T14:07:47;7.50;99.90
5786;DHT22;2919;48.630;9.000;2024-02-28T14:10:13;7.60;99.90
5786;DHT22;2919;48.630;9.000;2024-02-28T14:12:39;7.60;99.90
5786;DHT22;2919;48.630;9.000;2024-02-28T14:15:04;7.70;99.90
5786;DHT22;2919;48.630;9.000;2024-02-28T14:17:31;7.60;99.90
5786;DHT22;2919;48.630;9.000;2024-02-28T14:19:56;7.50;99.90
5786;DHT22;2919;48.630;9.000;2024-02-28T14:22:22;7.40;99.90
5786;DHT22;2919;48.630;9.000;2024-02-28T14:24:48;7.40;99.90
5786;DHT22;2919;48.630;9.000;2024-02-28T14:27:14;7.20;99.90
5786;DHT22;2919;48.630;9.000;2024-02-28T14:29:40;7.00;99.90
5786;DHT22;2919;48.630;9.000;2024-02-28T14:32:06;7.10;99.90
5786;DHT22;2919;48.630;9.000;2024-02-28T14:34:32;7.10;99.90
5786;DHT22;2919;48.630;9.000;2024-02-28T14:36:58;7.10;99.90
5786;DHT22;2919;48.630;9.000;2024-02-28T14:39:23;7.10;99.90
5786;DHT22;2919;48.630;9.000;2024-02-28T14:41:49;7.10;99.90
5786;DHT22;2919;48.630;9.000;2024-02-28T14:44:14;6.80;99.90
5786;DHT22;2919;48.630;9.000;2024-02-28T14:46:42;7.00;99.90
5786;DHT22;2919;48.630;9.000;2024-02-28T14:49:08;7.00;99.90
5786;DHT22;2919;48.630;9.000;2024-02-28T14:51:34;7.10;99.90
5786;DHT22;2919;48.630;9.000;2024-02-28T14:54:00;7.00;99.90
5786;DHT22;2919;48.630;9.000;2024-02-28T14:56:25;7.00;99.90
5786;DHT22;2919;48.630;9.000;2024-02-28T14:58:54;7.10;99.90
5786;DHT22;2919;48.630;9.000;2024-02-28T15:01:19;7.00;99.90
5786;DHT22;2919;48.630;9.000;2024-02-28T15:03:45;7.10;99.90
5786;DHT22;2919;48.630;9.000;2024-02-28T15:06:13;7.10;99.90
5786;DHT22;2919;48.630;9.000;2024-02-28T15:08:39;7.20;99.90
5786;DHT22;2919;48.630;9.000;2024-02-28T15:11:04;7.20;99.90
5786;DHT22;2919;48.630;9.000;2024-02-28T15:13:30;7.20;99.90
5786;DHT22;2919;48.630;9.000;2024-02-28T15:15:55;7.20;99.90
5786;DHT22;2919;48.630;9.000;2024-02-28T15:18:21;7.10;99.90
5786;DHT22;2919;48.630;9.000;2024-02-28T15:20:47;7.10;99.90
5786;DHT22;2919;48.630;9.000;2024-02-28T15:23:13;7.20;99.90
5786;DHT22;2919;48.630;9.000;2024-02-28T15:25:38;7.20;99.90
5786;DHT22;2919;48.630;9.000;2024-02-28T15:28:04;7.00;99.90
5786;DHT22;2919;48.630;9.000;2024-02-28T15:30:30;7.00;99.90
5786;DHT22;2919;48.630;9.000;2024-02-28T15:32:55;7.00;99.90
5786;DHT22;2919;48.630;9.000;2024-02-28T15:35:21;7.10;99.90
5786;DHT22;2919;48.630;9.000;2024-02-28T15:37:47;7.00;99.90
5786;DHT22;2919;48.630;9.000;2024-02-28T15:40:13;7.10;99.90
5786;DHT22;2919;48.630;9.000;2024-02-28T15:42:39;7.00;99.90
5786;DHT22;2919;48.630;9.000;2024-02-28T15:45:05;6.90;99.90
5786;DHT22;2919;48.630;9.000;2024-02-28T15:47:31;6.90;99.90
5786;DHT22;2919;48.630;9.000;2024-02-28T15:49:56;6.80;99.90
5786;DHT22;2919;48.630;9.000;2024-02-28T15:52:23;6.80;99.90
5786;DHT22;2919;48.630;9.000;2024-02-28T15:54:48;6.70;99.90
5786;DHT22;2919;48.630;9.000;2024-02-28T15:57:14;6.60;99.90
5786;DHT22;2919;48.630;9.000;2024-02-28T15:59:39;6.70;99.90
5786;DHT22;2919;48.630;9.000;2024-02-28T16:02:05;6.80;99.90
5786;DHT22;2919;48.630;9.000;2024-02-28T16:04:31;6.70;99.90
5786;DHT22;2919;48.630;9.000;2024-02-28T16:06:56;6.80;99.90
5786;DHT22;2919;48.630;9.000;2024-02-28T16:09:22;6.70;99.90